sensor_id;sensor_type;location;lat;lon;timestamp;pressure;altitude;pressure_sealevel;temperature;humidity
13476;BME280;6810;63.824;20.288;2022-12-07T00:01:38;100692.47;;;-4.72;76.33
13476;BME280;6810;63.824;20.288;2022-12-07T00:04:25;100693.31;;;-4.75;75.91
13476;BME280;6810;63.824;20.288;2022-12-07T00:07:12;100695.06;;;-4.77;76.55
13476;BME280;6810;63.824;20.288;2022-12-07T00:09:58;100694.19;;;-4.79;75.28
13476;BME280;6810;63.824;20.288;2022-12-07T00:12:45;100700.25;;;-4.80;76.27
13476;BME280;6810;63.824;20.288;2022-12-07T00:15:33;100691.56;;;-4.88;75.91
13476;BME280;6810;63.824;20.288;2022-12-07T00:18:20;100681.16;;;-4.94;76.31
13476;BME280;6810;63.824;20.288;2022-12-07T00:21:11;100693.28;;;-4.85;76.40
13476;BME280;6810;63.824;20.288;2022-12-07T00:23:58;100698.47;;;-4.87;76.19
13476;BME280;6810;63.824;20.288;2022-12-07T00:26:45;100691.56;;;-4.88;76.36
13476;BME280;6810;63.824;20.288;2022-12-07T00:29:32;100688.06;;;-4.90;75.95
13476;BME280;6810;63.824;20.288;2022-12-07T00:32:19;100692.38;;;-4.92;75.95
13476;BME280;6810;63.824;20.288;2022-12-07T00:35:06;100687.16;;;-4.98;76.26
13476;BME280;6810;63.824;20.288;2022-12-07T00:37:52;100694.97;;;-4.98;75.44
13476;BME280;6810;63.824;20.288;2022-12-07T00:40:39;100668.06;;;-5.16;75.92
13476;BME280;6810;63.824;20.288;2022-12-07T00:43:27;100563.09;;;-5.77;76.23
13476;BME280;6810;63.824;20.288;2022-12-07T00:46:14;100686.31;;;-5.04;75.96
13476;BME280;6810;63.824;20.288;2022-12-07T00:49:01;100694.09;;;-5.04;75.64
13476;BME280;6810;63.824;20.288;2022-12-07T00:51:49;100689.75;;;-5.07;75.90
13476;BME280;6810;63.824;20.288;2022-12-07T00:54:36;100694.94;;;-5.08;75.67
13476;BME280;6810;63.824;20.288;2022-12-07T00:57:22;100690.59;;;-5.11;76.17
13476;BME280;6810;63.824;20.288;2022-12-07T01:00:09;100691.47;;;-5.13;75.33
13476;BME280;6810;63.824;20.288;2022-12-07T01:02:56;100591.66;;;-5.76;76.38
13476;BME280;6810;63.824;20.288;2022-12-07T01:05:54;100680.16;;;-5.23;75.73
13476;BME280;6810;63.824;20.288;2022-12-07T01:08:41;100689.69;;;-5.20;75.89
13476;BME280;6810;63.824;20.288;2022-12-07T01:11:29;100678.38;;;-5.30;76.14
13476;BME280;6810;63.824;20.288;2022-12-07T01:14:16;100681.88;;;-5.25;75.58
13476;BME280;6810;63.824;20.288;2022-12-07T01:17:03;100680.16;;;-5.27;75.64
13476;BME280;6810;63.824;20.288;2022-12-07T01:19:49;100563.06;;;-5.95;75.84
13476;BME280;6810;63.824;20.288;2022-12-07T01:22:38;100674.94;;;-5.33;75.69
13476;BME280;6810;63.824;20.288;2022-12-07T01:25:25;100674.91;;;-5.37;75.22
13476;BME280;6810;63.824;20.288;2022-12-07T01:28:12;100677.50;;;-5.38;75.18
13476;BME280;6810;63.824;20.288;2022-12-07T01:31:00;100656.66;;;-5.50;75.79
13476;BME280;6810;63.824;20.288;2022-12-07T01:33:51;100671.41;;;-5.45;76.13
13476;BME280;6810;63.824;20.288;2022-12-07T01:36:38;100676.59;;;-5.48;75.67
13476;BME280;6810;63.824;20.288;2022-12-07T01:39:25;100664.41;;;-5.59;76.11
13476;BME280;6810;63.824;20.288;2022-12-07T01:42:12;100538.63;;;-6.33;75.54
13476;BME280;6810;63.824;20.288;2022-12-07T01:45:38;100678.25;;;-5.57;76.03
13476;BME280;6810;63.824;20.288;2022-12-07T01:48:38;100659.13;;;-5.71;75.32
13476;BME280;6810;63.824;20.288;2022-12-07T01:51:27;100646.13;;;-5.80;75.40
13476;BME280;6810;63.824;20.288;2022-12-07T01:54:16;100673.88;;;-5.67;75.95
13476;BME280;6810;63.824;20.288;2022-12-07T01:57:04;100658.25;;;-5.76;75.89
13476;BME280;6810;63.824;20.288;2022-12-07T01:59:53;100550.66;;;-6.44;75.89
13476;BME280;6810;63.824;20.288;2022-12-07T02:02:53;100671.25;;;-5.75;75.66
13476;BME280;6810;63.824;20.288;2022-12-07T02:05:23;100621.81;;;-6.02;76.15
13476;BME280;6810;63.824;20.288;2022-12-07T02:08:11;100668.59;;;-5.79;75.72
13476;BME280;6810;63.824;20.288;2022-12-07T02:11:02;100639.97;;;-5.99;75.59
13476;BME280;6810;63.824;20.288;2022-12-07T02:13:50;100669.47;;;-5.85;75.56
13476;BME280;6810;63.824;20.288;2022-12-07T02:26:38;100662.50;;;-5.95;75.49
13476;BME280;6810;63.824;20.288;2022-12-07T02:32:59;100654.66;;;-6.05;75.72
13476;BME280;6810;63.824;20.288;2022-12-07T02:41:52;100659.81;;;-6.07;76.00
13476;BME280;6810;63.824;20.288;2022-12-07T02:44:41;100651.09;;;-6.16;75.82
13476;BME280;6810;63.824;20.288;2022-12-07T02:47:29;100665.00;;;-6.07;75.76
13476;BME280;6810;63.824;20.288;2022-12-07T02:50:20;100541.75;;;-6.81;75.33
13476;BME280;6810;63.824;20.288;2022-12-07T02:53:28;100664.94;;;-6.13;75.71
13476;BME280;6810;63.824;20.288;2022-12-07T02:59:40;100646.69;;;-6.26;75.91
13476;BME280;6810;63.824;20.288;2022-12-07T03:02:53;100672.69;;;-6.16;75.40
13476;BME280;6810;63.824;20.288;2022-12-07T03:06:28;100671.84;;;-6.18;75.43
13476;BME280;6810;63.824;20.288;2022-12-07T03:09:37;100659.69;;;-6.20;75.55
13476;BME280;6810;63.824;20.288;2022-12-07T03:12:44;100665.75;;;-6.23;76.14
13476;BME280;6810;63.824;20.288;2022-12-07T03:15:53;100666.59;;;-6.24;76.04
13476;BME280;6810;63.824;20.288;2022-12-07T03:22:07;100665.69;;;-6.29;75.53
13476;BME280;6810;63.824;20.288;2022-12-07T03:24:57;100586.72;;;-6.73;75.35
13476;BME280;6810;63.824;20.288;2022-12-07T03:27:57;100665.66;;;-6.32;75.74
13476;BME280;6810;63.824;20.288;2022-12-07T03:30:52;100665.66;;;-6.33;75.59
13476;BME280;6810;63.824;20.288;2022-12-07T03:36:55;100668.22;;;-6.36;75.63
13476;BME280;6810;63.824;20.288;2022-12-07T03:39:50;100667.34;;;-6.37;75.76
13476;BME280;6810;63.824;20.288;2022-12-07T03:42:41;100636.09;;;-6.55;75.45
13476;BME280;6810;63.824;20.288;2022-12-07T03:45:43;100662.13;;;-6.41;75.88
13476;BME280;6810;63.824;20.288;2022-12-07T03:52:18;100676.75;;;-6.45;75.75
13476;BME280;6810;63.824;20.288;2022-12-07T03:55:11;100672.44;;;-6.47;75.62
13476;BME280;6810;63.824;20.288;2022-12-07T03:58:07;100673.31;;;-6.48;75.68
13476;BME280;6810;63.824;20.288;2022-12-07T04:00:55;100662.84;;;-6.57;75.47
13476;BME280;6810;63.824;20.288;2022-12-07T04:03:42;100669.78;;;-6.53;75.63
13476;BME280;6810;63.824;20.288;2022-12-07T04:06:29;100660.28;;;-6.56;75.79
13476;BME280;6810;63.824;20.288;2022-12-07T04:09:17;100660.25;;;-6.57;75.42
13476;BME280;6810;63.824;20.288;2022-12-07T04:12:04;100529.19;;;-7.32;75.39
13476;BME280;6810;63.824;20.288;2022-12-07T04:14:51;100651.59;;;-6.61;75.74
13476;BME280;6810;63.824;20.288;2022-12-07T04:17:37;100657.63;;;-6.62;75.63
13476;BME280;6810;63.824;20.288;2022-12-07T04:20:24;100657.63;;;-6.63;75.76
13476;BME280;6810;63.824;20.288;2022-12-07T04:23:11;100647.16;;;-6.72;75.73
13476;BME280;6810;63.824;20.288;2022-12-07T04:25:58;100663.59;;;-6.67;75.43
13476;BME280;6810;63.824;20.288;2022-12-07T04:28:45;100645.44;;;-6.72;75.61
13476;BME280;6810;63.824;20.288;2022-12-07T04:31:34;100639.41;;;-6.71;75.53
13476;BME280;6810;63.824;20.288;2022-12-07T04:34:21;100642.81;;;-6.75;75.83
13476;BME280;6810;63.824;20.288;2022-12-07T04:37:08;100641.09;;;-6.74;75.74
13476;BME280;6810;63.824;20.288;2022-12-07T04:39:54;100642.81;;;-6.75;75.54
13476;BME280;6810;63.824;20.288;2022-12-07T04:42:41;100589.88;;;-7.04;75.43
13476;BME280;6810;63.824;20.288;2022-12-07T04:45:28;100629.81;;;-6.79;75.63
13476;BME280;6810;63.824;20.288;2022-12-07T04:48:15;100625.50;;;-6.82;75.52
13476;BME280;6810;63.824;20.288;2022-12-07T04:51:02;100633.25;;;-6.82;75.68
13476;BME280;6810;63.824;20.288;2022-12-07T04:53:50;100632.38;;;-6.84;75.51
13476;BME280;6810;63.824;20.288;2022-12-07T04:56:38;100622.00;;;-6.85;75.63
13476;BME280;6810;63.824;20.288;2022-12-07T04:59:25;100495.19;;;-7.68;75.30
13476;BME280;6810;63.824;20.288;2022-12-07T05:02:12;100624.56;;;-6.88;75.54
13476;BME280;6810;63.824;20.288;2022-12-07T05:04:59;100632.31;;;-6.90;75.56
13476;BME280;6810;63.824;20.288;2022-12-07T05:07:45;100634.88;;;-6.91;75.78
13476;BME280;6810;63.824;20.288;2022-12-07T05:10:32;100615.81;;;-6.99;75.58
13476;BME280;6810;63.824;20.288;2022-12-07T05:13:19;100622.75;;;-6.95;75.75
13476;BME280;6810;63.824;20.288;2022-12-07T05:16:06;100621.88;;;-6.96;75.52
13476;BME280;6810;63.824;20.288;2022-12-07T05:18:53;100625.31;;;-6.98;75.49
13476;BME280;6810;63.824;20.288;2022-12-07T05:21:40;100600.97;;;-7.15;75.61
13476;BME280;6810;63.824;20.288;2022-12-07T05:24:27;100609.59;;;-7.13;75.56
13476;BME280;6810;63.824;20.288;2022-12-07T05:27:14;100618.25;;;-7.13;75.30
13476;BME280;6810;63.824;20.288;2022-12-07T05:30:01;100632.13;;;-7.08;75.39
13476;BME280;6810;63.824;20.288;2022-12-07T05:32:48;100637.28;;;-7.11;75.57
13476;BME280;6810;63.824;20.288;2022-12-07T05:35:35;100632.06;;;-7.12;75.89
13476;BME280;6810;63.824;20.288;2022-12-07T05:38:21;100618.16;;;-7.22;75.51
13476;BME280;6810;63.824;20.288;2022-12-07T05:41:09;100636.34;;;-7.14;75.02
13476;BME280;6810;63.824;20.288;2022-12-07T05:43:58;100633.75;;;-7.16;75.31
13476;BME280;6810;63.824;20.288;2022-12-07T05:46:45;100633.72;;;-7.18;75.44
13476;BME280;6810;63.824;20.288;2022-12-07T05:49:32;100639.78;;;-7.18;75.65
13476;BME280;6810;63.824;20.288;2022-12-07T05:52:18;100632.00;;;-7.20;75.85
13476;BME280;6810;63.824;20.288;2022-12-07T05:55:06;100624.19;;;-7.23;75.69
13476;BME280;6810;63.824;20.288;2022-12-07T05:57:53;100624.19;;;-7.25;75.64
13476;BME280;6810;63.824;20.288;2022-12-07T06:00:38;100633.69;;;-7.21;75.59
13476;BME280;6810;63.824;20.288;2022-12-07T06:03:25;100605.03;;;-7.39;75.63
13476;BME280;6810;63.824;20.288;2022-12-07T06:06:11;100444.44;;;-8.36;75.53
13476;BME280;6810;63.824;20.288;2022-12-07T06:08:58;100640.59;;;-7.21;75.64
13476;BME280;6810;63.824;20.288;2022-12-07T06:11:45;100614.53;;;-7.38;75.64
13476;BME280;6810;63.824;20.288;2022-12-07T06:14:31;100648.34;;;-7.21;75.77
13476;BME280;6810;63.824;20.288;2022-12-07T06:17:17;100648.34;;;-7.21;76.02
13476;BME280;6810;63.824;20.288;2022-12-07T06:20:05;100644.91;;;-7.22;75.30
13476;BME280;6810;63.824;20.288;2022-12-07T06:22:52;100601.47;;;-7.47;75.57
13476;BME280;6810;63.824;20.288;2022-12-07T06:25:39;100646.66;;;-7.21;75.72
13476;BME280;6810;63.824;20.288;2022-12-07T06:28:26;100652.69;;;-7.20;75.63
13476;BME280;6810;63.824;20.288;2022-12-07T06:31:13;100654.44;;;-7.19;75.47
13476;BME280;6810;63.824;20.288;2022-12-07T06:34:02;100566.59;;;-7.79;75.87
13476;BME280;6810;63.824;20.288;2022-12-07T06:36:50;100669.06;;;-7.21;75.65
13476;BME280;6810;63.824;20.288;2022-12-07T06:39:40;100671.66;;;-7.21;75.59
13476;BME280;6810;63.824;20.288;2022-12-07T06:42:28;100668.22;;;-7.22;75.57
13476;BME280;6810;63.824;20.288;2022-12-07T06:45:14;100673.41;;;-7.22;75.69
13476;BME280;6810;63.824;20.288;2022-12-07T06:48:01;100673.41;;;-7.22;75.63
13476;BME280;6810;63.824;20.288;2022-12-07T06:50:48;100675.09;;;-7.22;75.47
13476;BME280;6810;63.824;20.288;2022-12-07T06:53:36;100672.50;;;-7.22;75.78
13476;BME280;6810;63.824;20.288;2022-12-07T06:56:23;100681.13;;;-7.23;75.61
13476;BME280;6810;63.824;20.288;2022-12-07T06:59:10;100684.56;;;-7.24;75.67
13476;BME280;6810;63.824;20.288;2022-12-07T07:01:57;100672.38;;;-7.33;75.84
13476;BME280;6810;63.824;20.288;2022-12-07T07:04:43;100679.34;;;-7.26;75.49
13476;BME280;6810;63.824;20.288;2022-12-07T07:07:30;100671.53;;;-7.30;75.83
13476;BME280;6810;63.824;20.288;2022-12-07T07:10:37;100678.47;;;-7.31;75.60
13476;BME280;6810;63.824;20.288;2022-12-07T07:13:24;100674.03;;;-7.38;75.51
13476;BME280;6810;63.824;20.288;2022-12-07T07:16:11;100694.84;;;-7.29;75.59
13476;BME280;6810;63.824;20.288;2022-12-07T07:18:58;100689.63;;;-7.32;75.53
13476;BME280;6810;63.824;20.288;2022-12-07T07:21:45;100698.28;;;-7.31;75.48
13476;BME280;6810;63.824;20.288;2022-12-07T07:24:32;100692.19;;;-7.35;75.27
13476;BME280;6810;63.824;20.288;2022-12-07T07:27:18;100680.00;;;-7.43;75.48
13476;BME280;6810;63.824;20.288;2022-12-07T07:30:06;100689.59;;;-7.35;75.49
13476;BME280;6810;63.824;20.288;2022-12-07T07:33:00;100694.75;;;-7.36;75.54
13476;BME280;6810;63.824;20.288;2022-12-07T07:35:47;100700.78;;;-7.37;75.56
13476;BME280;6810;63.824;20.288;2022-12-07T07:38:34;100572.22;;;-8.10;75.34
13476;BME280;6810;63.824;20.288;2022-12-07T07:41:21;100693.00;;;-7.40;75.62
13476;BME280;6810;63.824;20.288;2022-12-07T07:44:12;100681.56;;;-7.57;75.54
13476;BME280;6810;63.824;20.288;2022-12-07T07:47:01;100705.00;;;-7.44;75.50
13476;BME280;6810;63.824;20.288;2022-12-07T07:49:48;100710.19;;;-7.44;75.42
13476;BME280;6810;63.824;20.288;2022-12-07T07:52:35;100711.00;;;-7.49;74.91
13476;BME280;6810;63.824;20.288;2022-12-07T07:55:22;100710.06;;;-7.53;75.33
13476;BME280;6810;63.824;20.288;2022-12-07T07:58:08;100719.53;;;-7.53;75.34
13476;BME280;6810;63.824;20.288;2022-12-07T08:00:55;100701.28;;;-7.64;75.28
13476;BME280;6810;63.824;20.288;2022-12-07T08:03:42;100708.25;;;-7.61;75.96
13476;BME280;6810;63.824;20.288;2022-12-07T08:06:25;100722.97;;;-7.56;76.01
13476;BME280;6810;63.824;20.288;2022-12-07T08:08:58;100689.94;;;-7.72;75.70
13476;BME280;6810;63.824;20.288;2022-12-07T08:11:44;100721.22;;;-7.57;75.37
13476;BME280;6810;63.824;20.288;2022-12-07T08:14:31;100707.28;;;-7.66;75.34
13476;BME280;6810;63.824;20.288;2022-12-07T08:17:18;100702.06;;;-7.69;75.42
13476;BME280;6810;63.824;20.288;2022-12-07T08:20:06;100708.22;;;-7.63;75.48
13476;BME280;6810;63.824;20.288;2022-12-07T08:22:53;100712.56;;;-7.60;75.29
13476;BME280;6810;63.824;20.288;2022-12-07T08:25:40;100720.31;;;-7.60;75.58
13476;BME280;6810;63.824;20.288;2022-12-07T08:28:28;100722.00;;;-7.62;75.41
13476;BME280;6810;63.824;20.288;2022-12-07T08:30:59;100717.69;;;-7.62;75.76
13476;BME280;6810;63.824;20.288;2022-12-07T08:33:47;100610.78;;;-8.25;75.47
13476;BME280;6810;63.824;20.288;2022-12-07T08:36:36;100662.06;;;-7.94;75.45
13476;BME280;6810;63.824;20.288;2022-12-07T08:39:23;100686.38;;;-7.81;75.78
13476;BME280;6810;63.824;20.288;2022-12-07T08:42:10;100711.59;;;-7.65;75.48
13476;BME280;6810;63.824;20.288;2022-12-07T08:44:56;100707.28;;;-7.66;75.36
13476;BME280;6810;63.824;20.288;2022-12-07T08:48:08;100710.75;;;-7.67;75.57
13476;BME280;6810;63.824;20.288;2022-12-07T08:50:57;100685.53;;;-7.80;75.28
13476;BME280;6810;63.824;20.288;2022-12-07T08:53:44;100694.19;;;-7.78;75.04
13476;BME280;6810;63.824;20.288;2022-12-07T08:56:32;100694.97;;;-7.82;75.48
13476;BME280;6810;63.824;20.288;2022-12-07T08:59:25;100696.72;;;-7.81;75.34
13476;BME280;6810;63.824;20.288;2022-12-07T09:02:12;100688.84;;;-7.90;75.69
13476;BME280;6810;63.824;20.288;2022-12-07T09:04:59;100716.66;;;-7.74;75.55
13476;BME280;6810;63.824;20.288;2022-12-07T09:07:48;100708.00;;;-7.76;75.58
13476;BME280;6810;63.824;20.288;2022-12-07T09:10:37;100709.75;;;-7.75;75.48
13476;BME280;6810;63.824;20.288;2022-12-07T09:13:23;100724.38;;;-7.76;75.68
13476;BME280;6810;63.824;20.288;2022-12-07T09:16:10;100720.06;;;-7.77;75.23
13476;BME280;6810;63.824;20.288;2022-12-07T09:18:57;100719.19;;;-7.77;75.08
13476;BME280;6810;63.824;20.288;2022-12-07T09:21:44;100723.47;;;-7.79;75.36
13476;BME280;6810;63.824;20.288;2022-12-07T09:24:31;100595.75;;;-8.53;75.28
13476;BME280;6810;63.824;20.288;2022-12-07T09:27:18;100719.16;;;-7.80;75.32
13476;BME280;6810;63.824;20.288;2022-12-07T09:30:06;100682.53;;;-8.07;75.46
13476;BME280;6810;63.824;20.288;2022-12-07T09:32:54;100728.63;;;-7.81;75.28
13476;BME280;6810;63.824;20.288;2022-12-07T09:35:45;100732.94;;;-7.81;75.47
13476;BME280;6810;63.824;20.288;2022-12-07T09:38:32;100711.22;;;-7.92;75.46
13476;BME280;6810;63.824;20.288;2022-12-07T09:41:19;100734.56;;;-7.86;75.24
13476;BME280;6810;63.824;20.288;2022-12-07T09:44:14;100728.34;;;-7.97;75.22
13476;BME280;6810;63.824;20.288;2022-12-07T09:47:03;100741.44;;;-7.88;75.42
13476;BME280;6810;63.824;20.288;2022-12-07T09:49:50;100743.19;;;-7.87;75.42
13476;BME280;6810;63.824;20.288;2022-12-07T09:52:37;100738.00;;;-7.87;75.29
13476;BME280;6810;63.824;20.288;2022-12-07T09:55:27;100744.91;;;-7.86;75.76
13476;BME280;6810;63.824;20.288;2022-12-07T09:58:21;100667.53;;;-8.32;75.26
13476;BME280;6810;63.824;20.288;2022-12-07T10:01:13;100738.88;;;-7.87;75.57
13476;BME280;6810;63.824;20.288;2022-12-07T10:04:09;100741.44;;;-7.87;75.23
13476;BME280;6810;63.824;20.288;2022-12-07T10:06:57;100734.56;;;-7.86;75.41
13476;BME280;6810;63.824;20.288;2022-12-07T10:09:44;100731.94;;;-7.89;75.51
13476;BME280;6810;63.824;20.288;2022-12-07T10:12:52;100691.00;;;-8.17;75.41
13476;BME280;6810;63.824;20.288;2022-12-07T10:15:56;100749.25;;;-7.84;75.64
13476;BME280;6810;63.824;20.288;2022-12-07T10:18:43;100743.97;;;-7.91;75.49
13476;BME280;6810;63.824;20.288;2022-12-07T10:21:30;100751.84;;;-7.82;75.46
13476;BME280;6810;63.824;20.288;2022-12-07T10:24:17;100752.75;;;-7.82;75.46
13476;BME280;6810;63.824;20.288;2022-12-07T10:29:39;100756.22;;;-7.80;75.61
13476;BME280;6810;63.824;20.288;2022-12-07T10:32:36;100735.56;;;-7.78;75.47
13476;BME280;6810;63.824;20.288;2022-12-07T10:35:28;100742.44;;;-7.79;75.35
13476;BME280;6810;63.824;20.288;2022-12-07T10:38:16;100746.75;;;-7.79;75.52
13476;BME280;6810;63.824;20.288;2022-12-07T10:41:07;100730.19;;;-7.92;75.62
13476;BME280;6810;63.824;20.288;2022-12-07T10:43:56;100762.25;;;-7.79;75.26
13476;BME280;6810;63.824;20.288;2022-12-07T10:46:50;100762.22;;;-7.81;75.29
13476;BME280;6810;63.824;20.288;2022-12-07T10:52:42;100755.38;;;-7.79;75.51
13476;BME280;6810;63.824;20.288;2022-12-07T10:55:24;100761.44;;;-7.78;75.45
13476;BME280;6810;63.824;20.288;2022-12-07T10:58:44;100698.81;;;-8.13;74.96
13476;BME280;6810;63.824;20.288;2022-12-07T11:01:58;100702.31;;;-8.09;75.01
13476;BME280;6810;63.824;20.288;2022-12-07T11:05:23;100758.78;;;-7.81;75.66
13476;BME280;6810;63.824;20.288;2022-12-07T11:08:27;100756.13;;;-7.86;75.12
13476;BME280;6810;63.824;20.288;2022-12-07T11:11:26;100749.19;;;-7.88;75.20
13476;BME280;6810;63.824;20.288;2022-12-07T11:14:25;100759.56;;;-7.87;74.92
13476;BME280;6810;63.824;20.288;2022-12-07T11:17:35;100752.69;;;-7.85;75.54
13476;BME280;6810;63.824;20.288;2022-12-07T11:20:39;100746.66;;;-7.84;75.48
13476;BME280;6810;63.824;20.288;2022-12-07T11:30:07;100748.53;;;-7.75;75.55
13476;BME280;6810;63.824;20.288;2022-12-07T11:33:07;100758.91;;;-7.74;75.64
13476;BME280;6810;63.824;20.288;2022-12-07T11:36:07;100765.84;;;-7.71;75.59
13476;BME280;6810;63.824;20.288;2022-12-07T11:38:57;100764.13;;;-7.71;75.62
13476;BME280;6810;63.824;20.288;2022-12-07T11:41:51;100765.00;;;-7.70;75.53
13476;BME280;6810;63.824;20.288;2022-12-07T11:50:57;100645.16;;;-8.32;75.23
13476;BME280;6810;63.824;20.288;2022-12-07T11:53:52;100757.34;;;-7.64;75.65
13476;BME280;6810;63.824;20.288;2022-12-07T11:56:40;100722.59;;;-7.81;75.41
13476;BME280;6810;63.824;20.288;2022-12-07T11:59:35;100758.22;;;-7.62;75.59
13476;BME280;6810;63.824;20.288;2022-12-07T12:02:28;100750.38;;;-7.67;75.40
13476;BME280;6810;63.824;20.288;2022-12-07T12:05:21;100757.38;;;-7.63;75.27
13476;BME280;6810;63.824;20.288;2022-12-07T12:08:16;100769.44;;;-7.62;75.82
13476;BME280;6810;63.824;20.288;2022-12-07T12:21:12;100754.88;;;-7.57;75.26
13476;BME280;6810;63.824;20.288;2022-12-07T12:24:12;100745.38;;;-7.56;75.56
13476;BME280;6810;63.824;20.288;2022-12-07T12:27:07;100758.31;;;-7.55;75.67
13476;BME280;6810;63.824;20.288;2022-12-07T12:29:38;100721.88;;;-7.70;75.79
13476;BME280;6810;63.824;20.288;2022-12-07T12:35:17;100737.63;;;-7.55;75.74
13476;BME280;6810;63.824;20.288;2022-12-07T12:38:27;100732.44;;;-7.55;75.67
13476;BME280;6810;63.824;20.288;2022-12-07T12:47:51;100734.22;;;-7.54;75.67
13476;BME280;6810;63.824;20.288;2022-12-07T12:50:39;100734.22;;;-7.54;75.48
13476;BME280;6810;63.824;20.288;2022-12-07T12:53:26;100734.16;;;-7.58;75.19
13476;BME280;6810;63.824;20.288;2022-12-07T12:56:23;100742.78;;;-7.55;75.74
13476;BME280;6810;63.824;20.288;2022-12-07T12:59:26;100737.63;;;-7.55;75.63
13476;BME280;6810;63.824;20.288;2022-12-07T13:02:27;100744.53;;;-7.55;75.53
13476;BME280;6810;63.824;20.288;2022-12-07T13:05:19;100737.59;;;-7.56;75.37
13476;BME280;6810;63.824;20.288;2022-12-07T13:08:19;100735.88;;;-7.57;75.67
13476;BME280;6810;63.824;20.288;2022-12-07T13:11:38;100729.75;;;-7.62;75.53
13476;BME280;6810;63.824;20.288;2022-12-07T13:20:48;100749.59;;;-7.63;75.53
13476;BME280;6810;63.824;20.288;2022-12-07T13:23:54;100759.91;;;-7.66;75.67
13476;BME280;6810;63.824;20.288;2022-12-07T13:26:42;100749.53;;;-7.67;75.50
13476;BME280;6810;63.824;20.288;2022-12-07T13:29:36;100749.50;;;-7.69;75.33
13476;BME280;6810;63.824;20.288;2022-12-07T13:32:28;100749.50;;;-7.69;75.57
13476;BME280;6810;63.824;20.288;2022-12-07T13:35:33;100739.91;;;-7.76;75.57
13476;BME280;6810;63.824;20.288;2022-12-07T13:38:32;100753.75;;;-7.72;75.17
13476;BME280;6810;63.824;20.288;2022-12-07T13:41:21;100756.31;;;-7.74;75.28
13476;BME280;6810;63.824;20.288;2022-12-07T13:44:11;100612.09;;;-8.52;75.80
13476;BME280;6810;63.824;20.288;2022-12-07T13:47:11;100741.56;;;-7.79;75.35
13476;BME280;6810;63.824;20.288;2022-12-07T13:49:59;100744.16;;;-7.79;75.29
13476;BME280;6810;63.824;20.288;2022-12-07T13:52:46;100749.31;;;-7.81;75.50
13476;BME280;6810;63.824;20.288;2022-12-07T13:55:33;100746.69;;;-7.82;75.81
13476;BME280;6810;63.824;20.288;2022-12-07T13:58:21;100751.84;;;-7.84;75.86
13476;BME280;6810;63.824;20.288;2022-12-07T14:01:08;100751.81;;;-7.85;75.40
13476;BME280;6810;63.824;20.288;2022-12-07T14:03:56;100750.97;;;-7.86;75.59
13476;BME280;6810;63.824;20.288;2022-12-07T14:07:23;100748.34;;;-7.87;75.58
13476;BME280;6810;63.824;20.288;2022-12-07T14:13:59;100744.00;;;-7.90;75.29
13476;BME280;6810;63.824;20.288;2022-12-07T14:16:59;100741.34;;;-7.93;75.70
13476;BME280;6810;63.824;20.288;2022-12-07T14:19:48;100753.44;;;-7.93;75.45
13476;BME280;6810;63.824;20.288;2022-12-07T14:22:37;100728.28;;;-8.02;75.63
13476;BME280;6810;63.824;20.288;2022-12-07T14:25:27;100729.91;;;-8.07;75.55
13476;BME280;6810;63.824;20.288;2022-12-07T14:28:33;100742.19;;;-7.95;75.81
13476;BME280;6810;63.824;20.288;2022-12-07T14:31:01;100736.13;;;-7.96;75.73
13476;BME280;6810;63.824;20.288;2022-12-07T14:33:29;100724.88;;;-8.01;75.66
13476;BME280;6810;63.824;20.288;2022-12-07T14:36:15;100732.69;;;-7.98;75.21
13476;BME280;6810;63.824;20.288;2022-12-07T14:39:02;100642.97;;;-8.58;75.58
13476;BME280;6810;63.824;20.288;2022-12-07T14:41:49;100728.25;;;-8.05;75.83
13476;BME280;6810;63.824;20.288;2022-12-07T14:44:39;100749.81;;;-8.04;75.79
13476;BME280;6810;63.824;20.288;2022-12-07T14:47:26;100734.25;;;-8.07;75.63
13476;BME280;6810;63.824;20.288;2022-12-07T14:50:37;100749.81;;;-8.03;75.79
13476;BME280;6810;63.824;20.288;2022-12-07T14:53:50;100743.75;;;-8.05;75.08
13476;BME280;6810;63.824;20.288;2022-12-07T14:56:37;100739.34;;;-8.12;75.47
13476;BME280;6810;63.824;20.288;2022-12-07T14:59:24;100750.59;;;-8.07;75.57
13476;BME280;6810;63.824;20.288;2022-12-07T15:02:13;100741.94;;;-8.10;75.40
13476;BME280;6810;63.824;20.288;2022-12-07T15:05:00;100736.72;;;-8.15;75.89
13476;BME280;6810;63.824;20.288;2022-12-07T15:07:48;100752.22;;;-8.13;75.58
13476;BME280;6810;63.824;20.288;2022-12-07T15:10:35;100641.78;;;-8.78;75.49
13476;BME280;6810;63.824;20.288;2022-12-07T15:13:22;100748.69;;;-8.18;75.40
13476;BME280;6810;63.824;20.288;2022-12-07T15:16:11;100745.25;;;-8.17;75.66
13476;BME280;6810;63.824;20.288;2022-12-07T15:19:21;100753.88;;;-8.18;75.30
13476;BME280;6810;63.824;20.288;2022-12-07T15:22:10;100760.72;;;-8.20;75.59
13476;BME280;6810;63.824;20.288;2022-12-07T15:25:04;100765.84;;;-8.22;75.40
13476;BME280;6810;63.824;20.288;2022-12-07T15:27:51;100763.28;;;-8.23;75.20
13476;BME280;6810;63.824;20.288;2022-12-07T15:30:39;100774.47;;;-8.24;75.38
13476;BME280;6810;63.824;20.288;2022-12-07T15:33:46;100704.84;;;-8.64;75.70
13476;BME280;6810;63.824;20.288;2022-12-07T15:36:34;100773.50;;;-8.29;75.44
13476;BME280;6810;63.824;20.288;2022-12-07T15:39:21;100761.22;;;-8.44;75.72
13476;BME280;6810;63.824;20.288;2022-12-07T15:42:08;100769.16;;;-8.33;75.34
13476;BME280;6810;63.824;20.288;2022-12-07T15:44:55;100743.72;;;-8.57;75.01
13476;BME280;6810;63.824;20.288;2022-12-07T15:47:50;100651.47;;;-9.13;75.74
13476;BME280;6810;63.824;20.288;2022-12-07T15:51:04;100781.94;;;-8.41;75.38
13476;BME280;6810;63.824;20.288;2022-12-07T15:53:52;100785.31;;;-8.42;75.65
13476;BME280;6810;63.824;20.288;2022-12-07T15:56:39;100649.53;;;-9.25;75.23
13476;BME280;6810;63.824;20.288;2022-12-07T15:59:26;100787.81;;;-8.48;75.48
13476;BME280;6810;63.824;20.288;2022-12-07T16:02:14;100784.25;;;-8.54;75.49
13476;BME280;6810;63.824;20.288;2022-12-07T16:05:06;100735.47;;;-8.84;75.59
13476;BME280;6810;63.824;20.288;2022-12-07T16:07:52;100798.88;;;-8.55;75.45
13476;BME280;6810;63.824;20.288;2022-12-07T16:10:40;100801.44;;;-8.56;74.96
13476;BME280;6810;63.824;20.288;2022-12-07T16:13:26;100797.09;;;-8.59;75.33